Time;durP1;ratioP1;P1;durP2;ratioP2;P2;SDS_P1;SDS_P2;PMS_P1;PMS_P2;Temp;Humidity;BMP_temperature;BMP_pressure;BME280_temperature;BME280_humidity;BME280_pressure;Samples;Min_cycle;Max_cycle;Signal;HPM_P1;HPM_P2
2023/08/12 00:00:23;;;;;;;;;;;;;;;22.10;54.21;96120.56;10444629;28;1960;-69
2023/08/12 00:05:23;;;;;;;;;;;;;;;22.11;53.93;96122.16;10456301;28;1974;-70
2023/08/12 00:10:23;;;;;;;;;;;;;;;22.10;54.00;96110.81;10435890;28;2199;-69
2023/08/12 00:15:23;;;;;;;;;;;;;;;22.10;54.29;96113.44;10431433;28;2054;-70
2023/08/12 00:20:24;;;;;;;;;;;;;;;22.11;54.23;96112.41;10440723;28;1880;-70
2023/08/12 00:25:24;;;;;;;;;;;;;;;22.11;54.29;96101.03;10443250;28;1920;-70
2023/08/12 00:30:24;;;;;;;;;;;;;;;22.12;54.35;96098.13;10439519;28;1939;-70
2023/08/12 00:35:25;;;;;;;;;;;;;;;22.12;54.18;96092.84;10438035;28;2106;-70
2023/08/12 00:40:26;;;;;;;;;;;;;;;22.11;54.42;96086.00;10441586;28;4534;-70
2023/08/12 00:45:26;;;;;;;;;;;;;;;22.12;54.35;96087.56;10438765;28;2388;-70
2023/08/12 00:50:26;;;;;;;;;;;;;;;22.13;54.29;96083.09;10440505;28;2379;-69
2023/08/12 00:55:27;;;;;;;;;;;;;;;22.13;54.27;96088.38;10439297;28;2009;-69
2023/08/12 01:00:27;;;;;;;;;;;;;;;22.13;54.07;96080.44;10466925;28;2084;-69
2023/08/12 01:05:27;;;;;;;;;;;;;;;22.13;54.46;96077.81;10438503;28;1838;-70
2023/08/12 01:10:29;;;;;;;;;;;;;;;22.13;54.54;96080.44;10440112;28;1864;-70
2023/08/12 01:15:29;;;;;;;;;;;;;;;22.13;54.48;96078.59;10467794;28;2015;-69
2023/08/12 01:20:30;;;;;;;;;;;;;;;22.14;54.51;96068.81;10439652;28;1842;-69
2023/08/12 01:25:30;;;;;;;;;;;;;;;22.13;54.46;96060.13;10438824;28;1869;-70
2023/08/12 01:30:30;;;;;;;;;;;;;;;22.14;54.35;96061.69;10438734;28;1982;-70
2023/08/12 01:35:41;;;;;;;;;;;;;;;22.13;54.52;96057.47;10436494;28;1909;-69
2023/08/12 01:40:43;;;;;;;;;;;;;;;22.13;54.62;96052.19;10480188;28;4501;-69
2023/08/12 01:45:43;;;;;;;;;;;;;;;22.13;54.43;96057.47;10470568;28;2479;-69
2023/08/12 01:50:47;;;;;;;;;;;;;;;22.14;54.53;96053.75;10436509;28;2045;-70
2023/08/12 01:55:48;;;;;;;;;;;;;;;22.14;54.54;96053.75;10432266;28;1954;-70
2023/08/12 02:00:49;;;;;;;;;;;;;;;22.14;54.65;96040.56;10432806;28;1985;-70
2023/08/12 02:05:49;;;;;;;;;;;;;;;22.14;54.65;96045.03;10439088;28;1885;-70
2023/08/12 02:10:49;;;;;;;;;;;;;;;22.14;54.68;96043.19;10436949;28;1849;-71
2023/08/12 02:15:49;;;;;;;;;;;;;;;22.14;54.49;96032.63;10439704;28;2056;-70
2023/08/12 02:20:50;;;;;;;;;;;;;;;22.13;54.47;96031.06;10434819;28;1853;-70
2023/08/12 02:25:51;;;;;;;;;;;;;;;22.14;54.36;96016.00;10446100;28;1990;-71
2023/08/12 02:30:51;;;;;;;;;;;;;;;22.13;54.37;96009.94;10454576;28;1838;-70
2023/08/12 02:35:52;;;;;;;;;;;;;;;22.13;54.63;96015.22;10481346;28;1975;-70
2023/08/12 02:40:53;;;;;;;;;;;;;;;22.14;54.39;96016.00;10427761;28;4566;-70
2023/08/12 02:45:53;;;;;;;;;;;;;;;22.14;54.42;96018.63;10448042;28;2029;-70
2023/08/12 02:50:53;;;;;;;;;;;;;;;22.14;54.42;96005.44;10446027;28;1905;-70
2023/08/12 02:55:53;;;;;;;;;;;;;;;22.14;54.43;95998.31;10445868;28;1937;-70
2023/08/12 03:00:54;;;;;;;;;;;;;;;22.14;54.56;95993.03;10476351;28;1969;-71
2023/08/12 03:05:54;;;;;;;;;;;;;;;22.14;54.28;95986.97;10447212;28;1947;-70
2023/08/12 03:11:01;;;;;;;;;;;;;;;22.13;54.36;95991.47;10446878;28;1838;-71
2023/08/12 03:16:01;;;;;;;;;;;;;;;22.13;54.40;95994.13;10462780;28;1910;-71
2023/08/12 03:21:05;;;;;;;;;;;;;;;22.14;54.19;96003.59;10457448;28;1874;-70
2023/08/12 03:26:05;;;;;;;;;;;;;;;22.14;54.32;95987.75;10444004;28;1866;-70
2023/08/12 03:31:05;;;;;;;;;;;;;;;22.13;54.46;95991.47;10447678;28;1827;-71
2023/08/12 03:36:06;;;;;;;;;;;;;;;22.14;54.31;96000.94;10440835;28;7128;-71
2023/08/12 03:41:06;;;;;;;;;;;;;;;22.14;54.14;95994.88;10445547;28;5532;-70
2023/08/12 03:46:06;;;;;;;;;;;;;;;22.13;54.48;95986.19;10446436;28;1965;-70
2023/08/12 03:51:07;;;;;;;;;;;;;;;22.14;54.19;95989.59;10442730;28;5479;-70
2023/08/12 03:56:07;;;;;;;;;;;;;;;22.12;54.40;95987.25;10442891;28;2219;-71
2023/08/12 04:01:07;;;;;;;;;;;;;;;22.13;54.33;95988.84;10441922;28;2122;-71
2023/08/12 04:06:07;;;;;;;;;;;;;;;22.14;54.40;95987.75;10438483;28;1975;-71
2023/08/12 04:11:08;;;;;;;;;;;;;;;22.13;54.11;95982.75;10469026;28;5484;-71
2023/08/12 04:16:08;;;;;;;;;;;;;;;22.13;54.11;95985.41;10441549;28;1929;-71
2023/08/12 04:21:09;;;;;;;;;;;;;;;22.14;54.10;95994.88;10440620;28;2113;-71
2023/08/12 04:26:09;;;;;;;;;;;;;;;22.13;54.03;95991.47;10445286;28;1981;-71
2023/08/12 04:31:09;;;;;;;;;;;;;;;22.13;54.04;95986.19;10439885;28;1878;-71
2023/08/12 04:36:09;;;;;;;;;;;;;;;22.14;54.06;95990.38;10439032;28;2096;-71
2023/08/12 04:41:10;;;;;;;;;;;;;;;22.14;54.29;95995.66;10439066;28;6394;-71
2023/08/12 04:46:10;;;;;;;;;;;;;;;22.13;54.30;95996.75;10440268;28;1901;-71
2023/08/12 04:51:10;;;;;;;;;;;;;;;22.14;54.10;96003.59;10441665;28;2053;-71
2023/08/12 04:56:11;;;;;;;;;;;;;;;22.13;54.23;95991.47;10443512;28;1974;-71
2023/08/12 05:01:11;;;;;;;;;;;;;;;22.15;53.94;95999.91;10437952;28;2246;-71
2023/08/12 05:06:12;;;;;;;;;;;;;;;22.15;53.91;95991.97;10468444;28;2024;-72
2023/08/12 05:11:12;;;;;;;;;;;;;;;22.15;54.03;95985.91;10441714;28;1991;-70
2023/08/12 05:16:12;;;;;;;;;;;;;;;22.15;53.97;95994.63;10443507;28;2041;-70
2023/08/12 05:21:12;;;;;;;;;;;;;;;22.16;54.25;95982.19;10438427;28;2018;-71
2023/08/12 05:26:13;;;;;;;;;;;;;;;22.16;54.00;95982.97;10439321;28;2132;-71
2023/08/12 05:31:13;;;;;;;;;;;;;;;22.16;53.91;95982.97;10451069;28;2007;-71
2023/08/12 05:36:13;;;;;;;;;;;;;;;22.16;53.69;95992.75;10439700;28;2009;-72
2023/08/12 05:41:13;;;;;;;;;;;;;;;22.17;53.71;95994.34;10466953;28;4957;-71
2023/08/12 05:46:14;;;;;;;;;;;;;;;22.17;53.85;95992.50;10470244;28;1884;-72
2023/08/12 05:51:14;;;;;;;;;;;;;;;22.17;53.81;95995.13;10437721;28;2133;-72
2023/08/12 05:56:14;;;;;;;;;;;;;;;22.17;53.74;95995.13;10435986;28;1998;-71
2023/08/12 06:01:14;;;;;;;;;;;;;;;22.18;53.66;95995.91;10436752;28;1934;-71
2023/08/12 06:06:15;;;;;;;;;;;;;;;22.18;53.64;95999.31;10440714;28;2068;-71
2023/08/12 06:11:15;;;;;;;;;;;;;;;22.18;53.72;95986.13;10445053;28;1990;-71
2023/08/12 06:16:15;;;;;;;;;;;;;;;22.19;53.94;95994.84;10442840;28;1973;-71
2023/08/12 06:21:16;;;;;;;;;;;;;;;22.18;53.63;95986.13;10446664;28;1882;-71
2023/08/12 06:26:16;;;;;;;;;;;;;;;22.19;53.93;95984.28;10446460;28;1983;-72
2023/08/12 06:31:16;;;;;;;;;;;;;;;22.19;53.59;95986.91;10457241;28;1878;-71
2023/08/12 06:36:16;;;;;;;;;;;;;;;22.19;53.70;95986.91;10448225;28;2798;-71
2023/08/12 06:41:17;;;;;;;;;;;;;;;22.19;53.59;95987.72;10449007;28;4977;-73
2023/08/12 06:46:17;;;;;;;;;;;;;;;22.19;53.67;95990.34;10456590;28;1877;-71
2023/08/12 06:51:17;;;;;;;;;;;;;;;22.20;53.68;95984.00;10467232;28;1959;-71
2023/08/12 06:56:17;;;;;;;;;;;;;;;22.20;53.72;95976.06;10461701;28;1977;-70
2023/08/12 07:01:18;;;;;;;;;;;;;;;22.20;53.54;95962.88;10448858;28;1964;-71
2023/08/12 07:06:18;;;;;;;;;;;;;;;22.21;53.70;95975.03;10454147;28;1936;-71
2023/08/12 07:11:18;;;;;;;;;;;;;;;22.21;53.84;95969.75;10441623;28;1909;-71
2023/08/12 07:16:19;;;;;;;;;;;;;;;22.23;53.59;95977.38;10453430;28;2085;-70
2023/08/12 07:21:19;;;;;;;;;;;;;;;22.22;53.67;95966.03;10451928;28;1870;-71
2023/08/12 07:26:19;;;;;;;;;;;;;;;22.22;53.60;95966.03;10461043;28;1913;-71
2023/08/12 07:31:20;;;;;;;;;;;;;;;22.23;53.77;95964.97;10450718;28;2528;-70
2023/08/12 07:36:20;;;;;;;;;;;;;;;22.23;53.64;95967.63;10444137;28;2113;-70
2023/08/12 07:41:20;;;;;;;;;;;;;;;22.24;53.61;95955.97;10450756;28;4977;-70
2023/08/12 07:46:20;;;;;;;;;;;;;;;22.23;53.64;95964.97;10452487;28;2026;-70
2023/08/12 07:51:21;;;;;;;;;;;;;;;22.24;53.92;95969.16;10443879;28;1866;-70
2023/08/12 07:56:21;;;;;;;;;;;;;;;22.24;53.78;95961.25;10442420;28;1890;-70
2023/08/12 08:01:21;;;;;;;;;;;;;;;22.26;53.66;95972.31;10454397;28;1878;-70
2023/08/12 08:06:23;;;;;;;;;;;;;;;22.27;53.60;95966.00;10461763;28;1866;-71
2023/08/12 08:11:24;;;;;;;;;;;;;;;22.27;53.93;95971.28;10448085;28;2089;-70
2023/08/12 08:16:24;;;;;;;;;;;;;;;22.27;53.83;95966.00;10477470;28;1910;-70
2023/08/12 08:21:24;;;;;;;;;;;;;;;22.28;53.75;95959.63;10442693;28;1913;-70
2023/08/12 08:26:26;;;;;;;;;;;;;;;22.28;54.02;95956.97;10447112;28;2492;-70
2023/08/12 08:31:26;;;;;;;;;;;;;;;22.29;53.84;95953.28;10445822;28;1938;-71
2023/08/12 08:36:27;;;;;;;;;;;;;;;22.30;53.78;95959.34;10449264;28;1906;-69
2023/08/12 08:41:27;;;;;;;;;;;;;;;22.30;53.97;95952.22;10472726;28;5040;-70
2023/08/12 08:46:27;;;;;;;;;;;;;;;22.30;53.99;95968.06;10456047;28;1868;-70
2023/08/12 08:51:34;;;;;;;;;;;;;;;22.32;53.77;95965.91;10478989;28;1909;-71
2023/08/12 08:56:34;;;;;;;;;;;;;;;22.33;53.82;95969.34;10443493;28;1982;-74
2023/08/12 09:01:35;;;;;;;;;;;;;;;22.36;53.94;95964.28;10447999;28;1850;-74
2023/08/12 09:06:35;;;;;;;;;;;;;;;22.36;53.89;95972.22;10435760;28;1984;-74
2023/08/12 09:11:35;;;;;;;;;;;;;;;22.36;54.13;95972.22;10477279;28;1906;-75
2023/08/12 09:16:36;;;;;;;;;;;;;;;22.39;54.32;95976.16;10441821;28;2106;-74
2023/08/12 09:21:36;;;;;;;;;;;;;;;22.40;54.35;95972.47;10449209;28;1997;-73
2023/08/12 09:26:36;;;;;;;;;;;;;;;22.41;54.51;95974.81;10447168;28;2488;-68
2023/08/12 09:31:37;;;;;;;;;;;;;;;22.41;54.71;95974.81;10451451;28;2050;-73
2023/08/12 09:36:38;;;;;;;;;;;;;;;22.42;54.56;95976.38;10438759;28;1905;-74
2023/08/12 09:41:39;;;;;;;;;;;;;;;22.44;54.92;95974.25;10441921;28;1905;-74
2023/08/12 09:46:39;;;;;;;;;;;;;;;22.45;55.39;95972.41;10448663;28;1897;-72
2023/08/12 09:51:42;;;;;;;;;;;;;;;22.45;55.31;95978.47;10453657;28;1898;-71
2023/08/12 09:56:42;;;;;;;;;;;;;;;22.45;54.96;95981.13;10434642;28;2109;-71
2023/08/12 10:01:42;;;;;;;;;;;;;;;22.45;55.32;95970.56;10441185;28;1912;-70
2023/08/12 10:06:42;;;;;;;;;;;;;;;22.46;54.97;95968.72;10441028;28;2075;-70
2023/08/12 10:11:46;;;;;;;;;;;;;;;22.46;54.96;95963.44;10439833;28;1888;-71
2023/08/12 10:16:46;;;;;;;;;;;;;;;22.47;55.09;95962.34;10446225;28;2049;-71
2023/08/12 10:21:47;;;;;;;;;;;;;;;22.46;55.15;95966.06;10436316;28;2280;-70
2023/08/12 10:26:48;;;;;;;;;;;;;;;22.47;55.04;95967.63;10439460;28;1953;-71
2023/08/12 10:31:48;;;;;;;;;;;;;;;22.47;55.32;95968.41;10438793;28;2005;-72
2023/08/12 10:36:53;;;;;;;;;;;;;;;22.46;55.30;95966.84;10458485;28;1972;-70
2023/08/12 10:41:56;;;;;;;;;;;;;;;22.48;55.15;95964.69;10449511;28;5001;-70
2023/08/12 10:46:57;;;;;;;;;;;;;;;22.48;55.20;95954.13;10441266;28;1965;-71
2023/08/12 10:51:57;;;;;;;;;;;;;;;22.49;55.34;95953.06;10479982;28;1902;-71
2023/08/12 10:57:03;;;;;;;;;;;;;;;22.49;55.30;95950.44;10457883;28;1947;-71
2023/08/12 11:02:08;;;;;;;;;;;;;;;22.50;54.94;95949.34;10452007;28;1877;-71
2023/08/12 11:07:14;;;;;;;;;;;;;;;22.51;54.99;95939.56;10445671;28;1899;-73
2023/08/12 11:12:18;;;;;;;;;;;;;;;22.52;55.05;95935.88;10447287;28;1993;-70
2023/08/12 11:17:18;;;;;;;;;;;;;;;22.51;55.05;95932.44;10440990;28;2427;-71
2023/08/12 11:22:18;;;;;;;;;;;;;;;22.52;55.06;95935.88;10478557;28;1882;-70
2023/08/12 11:27:19;;;;;;;;;;;;;;;22.52;55.03;95934.00;10448673;28;1843;-71
2023/08/12 11:32:19;;;;;;;;;;;;;;;22.53;55.05;95932.97;10485458;28;1881;-70
2023/08/12 11:37:19;;;;;;;;;;;;;;;22.54;55.13;95920.53;10448688;28;2124;-71
2023/08/12 11:42:20;;;;;;;;;;;;;;;22.54;55.02;95915.25;10449283;28;5162;-71
2023/08/12 11:47:20;;;;;;;;;;;;;;;22.55;55.09;95911.53;10447491;28;1894;-70
2023/08/12 11:52:20;;;;;;;;;;;;;;;22.55;55.06;95904.41;10442620;28;1905;-71
2023/08/12 11:57:21;;;;;;;;;;;;;;;22.57;55.27;95912.03;10490652;28;1913;-70
2023/08/12 12:02:22;;;;;;;;;;;;;;;22.57;55.25;95909.41;10464419;28;2001;-72
2023/08/12 12:07:23;;;;;;;;;;;;;;;22.59;55.13;95912.56;10450261;28;2144;-71
2023/08/12 12:12:26;;;;;;;;;;;;;;;22.58;55.10;95906.53;10446540;28;2399;-70
2023/08/12 12:17:26;;;;;;;;;;;;;;;22.60;54.94;95898.31;10465018;28;2117;-71
2023/08/12 12:22:28;;;;;;;;;;;;;;;22.59;54.95;95902.78;10446234;28;2143;-70
2023/08/12 12:27:28;;;;;;;;;;;;;;;22.60;54.88;95888.53;10481220;28;2012;-71
2023/08/12 12:32:29;;;;;;;;;;;;;;;22.61;54.99;95895.38;10478535;28;1921;-70
2023/08/12 12:37:29;;;;;;;;;;;;;;;22.61;54.93;95887.44;10454133;28;1901;-72
2023/08/12 12:42:30;;;;;;;;;;;;;;;22.63;54.95;95887.16;10446299;28;4996;-70
2023/08/12 12:47:30;;;;;;;;;;;;;;;22.63;55.04;95893.22;10463124;28;1902;-70
2023/08/12 12:52:30;;;;;;;;;;;;;;;22.62;55.01;95886.41;10448046;28;2005;-71
2023/08/12 12:57:30;;;;;;;;;;;;;;;22.64;54.94;95881.63;10446474;28;2014;-71
2023/08/12 13:02:31;;;;;;;;;;;;;;;22.65;55.20;95882.38;10455079;28;1838;-70
2023/08/12 13:07:31;;;;;;;;;;;;;;;22.65;55.15;95877.88;10476113;28;2527;-70
2023/08/12 13:12:31;;;;;;;;;;;;;;;22.67;54.85;95871.53;10441595;28;1976;-71
2023/08/12 13:17:32;;;;;;;;;;;;;;;22.65;55.20;95869.97;10446063;28;1999;-71
2023/08/12 13:22:32;;;;;;;;;;;;;;;22.65;55.03;95875.25;10445406;28;1890;-71
2023/08/12 13:27:32;;;;;;;;;;;;;;;22.67;54.92;95871.53;10480321;28;1899;-70
2023/08/12 13:32:38;;;;;;;;;;;;;;;22.67;55.15;95864.38;10444441;28;1861;-71
2023/08/12 13:37:39;;;;;;;;;;;;;;;22.67;54.89;95855.69;10448065;28;1978;-71
2023/08/12 13:42:39;;;;;;;;;;;;;;;22.67;55.11;95851.97;10440712;28;5106;-72
2023/08/12 13:47:39;;;;;;;;;;;;;;;22.69;55.15;95853.56;10447201;28;1873;-72
2023/08/12 13:52:40;;;;;;;;;;;;;;;22.69;54.84;95848.25;10475830;28;1897;-72
2023/08/12 13:57:40;;;;;;;;;;;;;;;22.70;55.09;95857.75;10451520;28;1901;-71
2023/08/12 14:02:41;;;;;;;;;;;;;;;22.68;54.98;95860.69;10456439;28;1842;-71
2023/08/12 14:07:41;;;;;;;;;;;;;;;22.70;55.10;95849.81;10449366;28;2709;-73
2023/08/12 14:12:41;;;;;;;;;;;;;;;22.71;55.17;95854.06;10445731;28;1806;-72
2023/08/12 14:17:41;;;;;;;;;;;;;;;22.72;54.95;95855.59;10447053;28;1988;-72
2023/08/12 14:22:43;;;;;;;;;;;;;;;22.71;54.95;95848.75;10448618;28;2209;-71
2023/08/12 14:27:44;;;;;;;;;;;;;;;22.72;55.08;95845.84;10455017;28;1874;-71
2023/08/12 14:32:44;;;;;;;;;;;;;;;22.72;55.08;95850.31;10450465;28;1944;-70
2023/08/12 14:37:44;;;;;;;;;;;;;;;22.72;55.19;95851.13;10454164;28;2032;-71
2023/08/12 14:42:44;;;;;;;;;;;;;;;22.73;55.00;95844.75;10455113;28;5135;-72
2023/08/12 14:47:45;;;;;;;;;;;;;;;22.73;55.20;95847.38;10468592;28;1794;-72
2023/08/12 14:52:45;;;;;;;;;;;;;;;22.73;55.20;95859.84;10450622;28;1855;-71
2023/08/12 14:57:46;;;;;;;;;;;;;;;22.75;54.98;95870.91;10456715;28;1958;-71
2023/08/12 15:02:46;;;;;;;;;;;;;;;22.74;54.98;95890.47;10460271;28;2397;-71
2023/08/12 15:07:47;;;;;;;;;;;;;;;22.73;54.85;95888.91;10457463;28;1910;-72
2023/08/12 15:12:47;;;;;;;;;;;;;;;22.73;54.92;95892.31;10458875;28;1951;-72
2023/08/12 15:17:47;;;;;;;;;;;;;;;22.73;54.92;95886.25;10451357;28;2044;-72
2023/08/12 15:22:47;;;;;;;;;;;;;;;22.73;55.10;95887.03;10449702;28;1949;-74
2023/08/12 15:27:48;;;;;;;;;;;;;;;22.73;54.89;95883.63;10486267;28;1896;-72
2023/08/12 15:32:48;;;;;;;;;;;;;;;22.73;55.07;95880.97;10449909;28;1860;-72
2023/08/12 15:37:48;;;;;;;;;;;;;;;22.75;54.76;95873.56;10459246;28;2026;-73
2023/08/12 15:42:49;;;;;;;;;;;;;;;22.74;54.81;95871.97;10477856;28;5008;-73
2023/08/12 15:47:50;;;;;;;;;;;;;;;22.75;55.02;95868.25;10436603;28;1877;-72
2023/08/12 15:52:50;;;;;;;;;;;;;;;22.74;54.85;95853.47;10445500;28;1877;-73
2023/08/12 15:57:51;;;;;;;;;;;;;;;22.74;54.90;95848.19;10453031;28;2326;-72
2023/08/12 16:02:51;;;;;;;;;;;;;;;22.76;55.03;95838.09;10478233;28;1890;-72
2023/08/12 16:07:51;;;;;;;;;;;;;;;22.75;54.92;95839.19;10451234;28;1878;-72
2023/08/12 16:12:52;;;;;;;;;;;;;;;22.75;54.91;95833.91;10453157;28;1940;-72
2023/08/12 16:17:52;;;;;;;;;;;;;;;22.76;54.87;95835.47;10449281;28;1894;-71
2023/08/12 16:22:52;;;;;;;;;;;;;;;22.75;55.08;95842.59;10447019;28;1901;-73
2023/08/12 16:27:52;;;;;;;;;;;;;;;22.76;55.04;95838.91;10450353;28;1893;-71
2023/08/12 16:32:53;;;;;;;;;;;;;;;22.76;55.04;95849.47;10443809;28;2101;-73
2023/08/12 16:37:53;;;;;;;;;;;;;;;22.76;54.67;95852.13;10443589;28;1946;-71
2023/08/12 16:42:53;;;;;;;;;;;;;;;22.77;54.72;95851.06;10450744;28;4494;-71
2023/08/12 16:47:54;;;;;;;;;;;;;;;22.77;54.86;95859.00;10453589;28;1961;-71
2023/08/12 16:52:54;;;;;;;;;;;;;;;22.78;54.88;95859.75;10447361;28;2277;-73
2023/08/12 16:57:54;;;;;;;;;;;;;;;22.78;54.78;95865.03;10450491;28;1979;-70
2023/08/12 17:02:54;;;;;;;;;;;;;;;22.79;54.92;95861.34;10451523;28;1909;-71
2023/08/12 17:07:55;;;;;;;;;;;;;;;22.80;54.73;95870.81;10446100;28;1949;-71
2023/08/12 17:12:55;;;;;;;;;;;;;;;22.79;54.84;95878.00;10452161;28;1960;-71
2023/08/12 17:17:55;;;;;;;;;;;;;;;22.79;54.91;95878.00;10479123;28;2087;-72
2023/08/12 17:22:56;;;;;;;;;;;;;;;22.80;54.80;95890.13;10448384;28;2089;-71
2023/08/12 17:27:56;;;;;;;;;;;;;;;22.81;54.70;95893.56;10459117;28;1890;-71
2023/08/12 17:32:56;;;;;;;;;;;;;;;22.80;54.98;95895.41;10453193;28;1874;-71
2023/08/12 17:37:57;;;;;;;;;;;;;;;22.81;54.72;95890.91;10443874;28;1947;-73
2023/08/12 17:42:57;;;;;;;;;;;;;;;22.80;54.94;95903.34;10486749;28;4546;-72
2023/08/12 17:47:58;;;;;;;;;;;;;;;22.81;54.91;95906.78;10446981;28;1984;-71
2023/08/12 17:52:58;;;;;;;;;;;;;;;22.82;54.92;95910.97;10454426;28;2645;-73
2023/08/12 17:57:58;;;;;;;;;;;;;;;22.81;54.61;95909.41;10451563;28;1967;-72
2023/08/12 18:02:58;;;;;;;;;;;;;;;22.82;54.75;95916.25;10449895;28;2016;-71
2023/08/12 18:07:59;;;;;;;;;;;;;;;22.82;54.90;95922.34;10466674;28;2105;-70
2023/08/12 18:12:59;;;;;;;;;;;;;;;22.83;54.88;95917.84;10456180;28;1947;-71
2023/08/12 18:18:01;;;;;;;;;;;;;;;22.82;54.91;95917.06;10459831;28;2073;-69
2023/08/12 18:23:02;;;;;;;;;;;;;;;22.82;54.71;95917.06;10453290;28;2077;-73
2023/08/12 18:28:02;;;;;;;;;;;;;;;22.83;54.63;95912.56;10459058;28;1965;-72
2023/08/12 18:33:05;;;;;;;;;;;;;;;22.82;54.75;95916.25;10473492;28;1858;-69
2023/08/12 18:38:05;;;;;;;;;;;;;;;22.83;54.71;95915.19;10448378;28;1951;-72
2023/08/12 18:43:06;;;;;;;;;;;;;;;22.84;54.61;95916.75;10475447;28;4680;-71
2023/08/12 18:48:06;;;;;;;;;;;;;;;22.84;54.73;95919.41;10450705;28;2467;-72
2023/08/12 18:53:06;;;;;;;;;;;;;;;22.84;54.99;95924.69;10458913;28;2030;-72
2023/08/12 18:58:06;;;;;;;;;;;;;;;22.85;54.76;95937.66;10481885;28;1972;-72
2023/08/12 19:03:07;;;;;;;;;;;;;;;22.86;54.86;95946.34;10447271;28;1919;-72
2023/08/12 19:08:07;;;;;;;;;;;;;;;22.85;54.89;95942.13;10453615;28;2018;-73
2023/08/12 19:13:07;;;;;;;;;;;;;;;22.85;54.71;95940.28;10449739;28;2128;-73
2023/08/12 19:18:08;;;;;;;;;;;;;;;22.86;54.93;95946.34;10455504;28;1963;-71
2023/08/12 19:23:08;;;;;;;;;;;;;;;22.85;54.72;95948.22;10453722;28;1873;-72
2023/08/12 19:28:08;;;;;;;;;;;;;;;22.86;54.74;95948.97;10464934;28;1858;-72
2023/08/12 19:33:08;;;;;;;;;;;;;;;22.87;54.71;95955.84;10477202;28;1881;-70
2023/08/12 19:38:12;;;;;;;;;;;;;;;22.87;54.64;95964.59;10459164;28;2123;-72
2023/08/12 19:43:12;;;;;;;;;;;;;;;22.87;54.57;95974.34;10447709;28;4636;-72
2023/08/12 19:48:12;;;;;;;;;;;;;;;22.87;54.65;95988.38;10450891;28;1983;-72
2023/08/12 19:53:13;;;;;;;;;;;;;;;22.88;54.66;96002.34;10453393;28;1953;-72
2023/08/12 19:58:13;;;;;;;;;;;;;;;22.88;54.73;96005.78;10480323;28;2063;-72
2023/08/12 20:03:13;;;;;;;;;;;;;;;22.87;54.79;96014.00;10452780;28;1878;-72
2023/08/12 20:08:13;;;;;;;;;;;;;;;22.88;54.52;96012.94;10457003;28;1915;-73
2023/08/12 20:13:16;;;;;;;;;;;;;;;22.88;54.77;96010.28;10446619;28;2125;-72
2023/08/12 20:18:19;;;;;;;;;;;;;;;22.89;54.83;96014.50;10449301;28;1969;-72
2023/08/12 20:23:20;;;;;;;;;;;;;;;22.88;54.62;96000.50;10448022;28;2076;-72
2023/08/12 20:28:24;;;;;;;;;;;;;;;22.88;54.72;96005.00;10442640;28;1947;-73
2023/08/12 20:33:24;;;;;;;;;;;;;;;22.89;54.55;96014.50;10445471;28;1838;-72
2023/08/12 20:38:25;;;;;;;;;;;;;;;22.89;54.71;96014.50;10448903;28;2775;-72
2023/08/12 20:43:26;;;;;;;;;;;;;;;22.89;54.38;96014.50;10456700;28;4525;-72
2023/08/12 20:48:26;;;;;;;;;;;;;;;22.89;54.65;96014.50;10481957;28;1869;-74
2023/08/12 20:53:32;;;;;;;;;;;;;;;22.90;54.60;96016.06;10448853;28;1911;-74
2023/08/12 20:58:33;;;;;;;;;;;;;;;22.89;54.44;96009.22;10453039;28;1910;-73
2023/08/12 21:03:33;;;;;;;;;;;;;;;22.89;54.54;96017.94;10454727;28;1771;-74
2023/08/12 21:08:33;;;;;;;;;;;;;;;22.90;54.68;96026.66;10451620;28;1937;-75
2023/08/12 21:13:33;;;;;;;;;;;;;;;22.91;54.33;96036.16;10448882;28;1905;-74
2023/08/12 21:18:34;;;;;;;;;;;;;;;22.91;54.50;96041.44;10449594;28;1926;-71
2023/08/12 21:23:34;;;;;;;;;;;;;;;22.90;54.48;96037.22;10458198;28;1911;-71
2023/08/12 21:28:34;;;;;;;;;;;;;;;22.91;54.62;96044.09;10456088;28;1854;-71
2023/08/12 21:33:34;;;;;;;;;;;;;;;22.91;54.31;96044.88;10450141;28;2543;-72
2023/08/12 21:38:35;;;;;;;;;;;;;;;22.91;54.47;96039.59;10451920;28;1886;-71
2023/08/12 21:43:35;;;;;;;;;;;;;;;22.92;54.55;96043.81;10446630;28;4569;-72
2023/08/12 21:48:35;;;;;;;;;;;;;;;22.91;54.46;96044.09;10454519;28;2144;-72
2023/08/12 21:53:36;;;;;;;;;;;;;;;22.93;54.58;96041.97;10452525;28;1898;-71
2023/08/12 21:58:36;;;;;;;;;;;;;;;22.92;54.55;96043.00;10478968;28;1972;-72
2023/08/12 22:03:36;;;;;;;;;;;;;;;22.93;54.44;96045.41;10451630;28;2027;-71
2023/08/12 22:08:36;;;;;;;;;;;;;;;22.93;54.63;96045.41;10451754;28;1763;-71
2023/08/12 22:13:37;;;;;;;;;;;;;;;22.93;54.65;96036.66;10442737;28;1992;-71
2023/08/12 22:18:37;;;;;;;;;;;;;;;22.94;54.43;96046.16;10488451;28;1925;-71
2023/08/12 22:23:37;;;;;;;;;;;;;;;22.93;54.42;96055.19;10445495;28;1889;-72
2023/08/12 22:28:38;;;;;;;;;;;;;;;22.94;54.55;96056.75;10452720;28;1897;-71
2023/08/12 22:33:38;;;;;;;;;;;;;;;22.94;54.62;96046.16;10449107;28;2344;-71
2023/08/12 22:38:38;;;;;;;;;;;;;;;22.95;54.65;96053.03;10441674;28;1909;-71
2023/08/12 22:43:38;;;;;;;;;;;;;;;22.94;54.61;96054.09;10447257;28;4617;-72
2023/08/12 22:48:39;;;;;;;;;;;;;;;22.94;54.50;96048.81;10457328;28;1916;-73
2023/08/12 22:53:39;;;;;;;;;;;;;;;22.94;54.51;96046.16;10456131;28;1885;-71
2023/08/12 22:58:39;;;;;;;;;;;;;;;22.95;54.24;96042.47;10487953;28;1979;-71
2023/08/12 23:03:39;;;;;;;;;;;;;;;22.94;54.25;96041.66;10438304;28;1864;-72
2023/08/12 23:08:40;;;;;;;;;;;;;;;22.96;54.66;96038.72;10460788;28;1851;-72
2023/08/12 23:13:40;;;;;;;;;;;;;;;22.97;54.28;96040.31;10448897;28;2241;-72
2023/08/12 23:18:40;;;;;;;;;;;;;;;22.95;54.52;96043.25;10454123;28;1902;-72
2023/08/12 23:23:41;;;;;;;;;;;;;;;22.96;54.33;96046.66;10456869;28;1838;-72
2023/08/12 23:28:41;;;;;;;;;;;;;;;22.97;54.29;96042.97;10461327;28;2445;-71
2023/08/12 23:33:42;;;;;;;;;;;;;;;22.97;54.26;96050.91;10456535;28;1997;-72
2023/08/12 23:38:45;;;;;;;;;;;;;;;22.97;54.34;96051.69;10459074;28;1945;-72
2023/08/12 23:43:46;;;;;;;;;;;;;;;22.96;54.61;96044.81;10452244;28;4509;-72
2023/08/12 23:48:47;;;;;;;;;;;;;;;22.98;54.43;96047.22;10450197;28;1900;-72
2023/08/12 23:53:47;;;;;;;;;;;;;;;22.98;54.29;96052.50;10472936;28;2201;-72
2023/08/12 23:58:48;;;;;;;;;;;;;;;22.97;54.35;96061.47;10451825;28;1902;-72
